createdAt,value
2023-03-16T00:00:49.460Z,4.15
2023-03-16T00:03:19.370Z,3.22
2023-03-16T00:05:51.472Z,5.18
2023-03-16T00:08:19.798Z,6.05
2023-03-16T00:10:48.038Z,3.25
2023-03-16T00:13:17.814Z,5.45
2023-03-16T00:15:57.668Z,3.35
2023-03-16T00:18:27.410Z,3.38
2023-03-16T00:20:58.233Z,3.88
2023-03-16T00:23:29.620Z,3.33
2023-03-16T00:25:59.189Z,2.75
2023-03-16T00:28:28.017Z,4.32
2023-03-16T00:30:59.326Z,3.60
2023-03-16T00:33:27.527Z,3.42
2023-03-16T00:36:02.444Z,2.47
2023-03-16T00:38:32.416Z,2.88
2023-03-16T00:40:59.837Z,2.75
2023-03-16T00:43:27.403Z,5.20
2023-03-16T00:46:06.803Z,2.78
2023-03-16T00:48:35.797Z,2.97
2023-03-16T00:51:06.338Z,3.47
2023-03-16T00:53:36.118Z,2.67
2023-03-16T00:56:04.664Z,3.42
2023-03-16T00:58:38.413Z,4.25
2023-03-16T01:01:09.218Z,5.07
2023-03-16T01:03:36.828Z,6.95
2023-03-16T01:06:10.251Z,3.22
2023-03-16T01:08:39.268Z,4.65
2023-03-16T01:11:16.346Z,2.30
2023-03-16T01:13:47.070Z,1.98
2023-03-16T01:16:15.172Z,2.30
2023-03-16T01:18:42.624Z,2.63
2023-03-16T01:21:13.872Z,1.77
2023-03-16T01:23:43.892Z,3.13
2023-03-16T01:26:12.850Z,2.97
2023-03-16T01:28:40.245Z,2.55
2023-03-16T01:31:14.646Z,2.05
2023-03-16T01:33:43.431Z,5.15
2023-03-16T01:36:16.328Z,2.25
2023-03-16T01:38:52.211Z,2.38
2023-03-16T01:41:19.944Z,3.80
2023-03-16T01:43:47.522Z,1.67
2023-03-16T01:46:20.314Z,1.42
2023-03-16T01:49:10.872Z,3.03
2023-03-16T01:52:02.706Z,3.67
2023-03-16T01:54:48.411Z,3.53
2023-03-16T01:57:20.883Z,3.53
2023-03-16T02:00:19.087Z,1.73
2023-03-16T02:03:11.778Z,1.98
2023-03-16T02:06:18.170Z,2.60
2023-03-16T02:08:50.635Z,1.48
2023-03-16T02:11:18.321Z,1.77
2023-03-16T02:13:58.106Z,2.13
2023-03-16T02:16:25.684Z,5.05
2023-03-16T02:18:53.476Z,1.38
2023-03-16T02:21:46.939Z,1.67
2023-03-16T02:24:14.542Z,4.72
2023-03-16T02:26:51.954Z,2.33
2023-03-16T02:29:29.771Z,8.27
2023-03-16T02:31:59.923Z,2.95
2023-03-16T02:34:28.120Z,2.45
2023-03-16T02:36:58.459Z,2.90
2023-03-16T02:39:28.021Z,2.10
2023-03-16T02:41:55.901Z,3.20
2023-03-16T02:44:33.911Z,2.95
2023-03-16T02:47:20.959Z,1.88
2023-03-16T02:49:49.221Z,6.50
2023-03-16T02:52:16.671Z,2.30
2023-03-16T02:54:44.098Z,1.73
2023-03-16T02:57:11.727Z,2.33
2023-03-16T02:59:39.224Z,1.48
2023-03-16T03:02:07.440Z,2.45
2023-03-16T03:04:37.230Z,3.55
2023-03-16T03:07:07.100Z,2.28
2023-03-16T03:09:49.337Z,3.80
2023-03-16T03:12:16.741Z,3.35
2023-03-16T03:14:44.419Z,3.03
2023-03-16T03:17:13.388Z,1.55
2023-03-16T03:19:41.102Z,1.35
2023-03-16T03:22:08.741Z,2.40
2023-03-16T03:24:36.159Z,1.77
2023-03-16T03:27:05.848Z,2.95
2023-03-16T03:29:36.131Z,2.42
2023-03-16T03:32:04.980Z,2.35
2023-03-16T03:34:32.525Z,3.97
2023-03-16T03:37:04.246Z,1.67
2023-03-16T03:39:32.524Z,1.27
2023-03-16T03:41:59.920Z,3.88
2023-03-16T03:44:27.433Z,1.92
2023-03-16T03:46:55.801Z,1.67
2023-03-16T03:49:26.675Z,1.35
2023-03-16T03:51:54.858Z,2.42
2023-03-16T03:54:26.223Z,1.50
2023-03-16T03:57:05.349Z,1.30
2023-03-16T03:59:33.163Z,2.55
2023-03-16T04:02:22.143Z,2.13
2023-03-16T04:04:52.943Z,1.73
2023-03-16T04:07:20.573Z,1.60
2023-03-16T04:09:50.132Z,8.88
2023-03-16T04:12:32.331Z,7.95
2023-03-16T04:14:59.853Z,1.55
2023-03-16T04:17:34.373Z,1.63
2023-03-16T04:20:11.351Z,2.35
2023-03-16T04:22:38.787Z,4.05
2023-03-16T04:25:06.465Z,3.45
2023-03-16T04:27:36.915Z,1.67
2023-03-16T04:30:08.482Z,1.38
2023-03-16T04:32:36.227Z,1.73
2023-03-16T04:35:05.205Z,3.25
2023-03-16T04:37:52.864Z,2.25
2023-03-16T04:40:24.600Z,1.80
2023-03-16T04:43:02.748Z,1.75
2023-03-16T04:45:32.422Z,6.00
2023-03-16T04:48:00.467Z,10.15
2023-03-16T04:50:28.268Z,4.05
2023-03-16T04:52:56.165Z,5.75
2023-03-16T04:55:23.942Z,1.45
2023-03-16T04:57:52.644Z,4.75
2023-03-16T05:00:23.527Z,8.90
2023-03-16T05:03:04.356Z,2.45
2023-03-16T05:05:32.961Z,4.15
2023-03-16T05:08:01.612Z,2.97
2023-03-16T05:10:31.059Z,2.30
2023-03-16T05:12:58.829Z,2.35
2023-03-16T05:15:27.050Z,2.55
2023-03-16T05:18:06.681Z,5.28
2023-03-16T05:20:34.908Z,3.42
2023-03-16T05:23:04.181Z,2.63
2023-03-16T05:25:35.183Z,5.47
2023-03-16T05:28:05.922Z,2.10
2023-03-16T05:30:47.552Z,4.53
2023-03-16T05:33:21.642Z,4.00
2023-03-16T05:38:21.316Z,2.50
2023-03-16T05:40:53.179Z,2.53
2023-03-16T05:43:40.851Z,4.95
2023-03-16T05:46:08.483Z,3.65
2023-03-16T05:48:36.207Z,3.17
2023-03-16T05:51:06.038Z,4.03
2023-03-16T05:53:35.600Z,4.30
2023-03-16T05:56:13.044Z,6.15
2023-03-16T05:58:43.585Z,9.88
2023-03-16T06:01:13.162Z,7.50
2023-03-16T06:03:42.407Z,8.30
2023-03-16T06:06:13.909Z,5.67
2023-03-16T06:08:52.593Z,9.48
2023-03-16T06:11:21.919Z,6.35
2023-03-16T06:13:49.564Z,5.18
2023-03-16T06:16:17.773Z,6.60
2023-03-16T06:18:45.785Z,4.28
2023-03-16T06:21:13.332Z,4.30
2023-03-16T06:23:41.682Z,8.00
2023-03-16T06:26:10.279Z,2.50
2023-03-16T06:28:41.595Z,6.65
2023-03-16T06:31:09.073Z,9.32
2023-03-16T06:33:37.872Z,6.78
2023-03-16T06:36:06.106Z,5.90
2023-03-16T06:38:37.952Z,5.93
2023-03-16T06:41:14.770Z,8.63
2023-03-16T06:43:44.693Z,6.93
2023-03-16T06:46:12.666Z,3.38
2023-03-16T06:48:40.443Z,7.25
2023-03-16T06:51:09.235Z,6.63
2023-03-16T06:53:37.719Z,6.10
2023-03-16T06:56:05.578Z,5.20
2023-03-16T07:01:04.909Z,9.57
2023-03-16T07:03:32.398Z,4.38
2023-03-16T07:06:06.343Z,2.67
2023-03-16T07:08:33.760Z,4.10
2023-03-16T07:11:01.557Z,5.10
2023-03-16T07:13:30.206Z,2.90
2023-03-16T07:15:57.671Z,5.75
2023-03-16T07:18:26.800Z,3.90
2023-03-16T07:20:55.140Z,4.65
2023-03-16T07:23:26.318Z,5.55
2023-03-16T07:25:59.341Z,3.05
2023-03-16T07:28:28.050Z,4.03
2023-03-16T07:31:03.748Z,9.48
2023-03-16T07:33:37.614Z,4.82
2023-03-16T07:36:09.277Z,3.20
2023-03-16T07:38:41.686Z,3.85
2023-03-16T07:41:09.794Z,4.03
2023-03-16T07:43:38.097Z,5.43
2023-03-16T07:46:06.479Z,10.63
2023-03-16T07:48:34.788Z,3.58
2023-03-16T07:51:06.088Z,3.50
2023-03-16T07:53:33.636Z,6.57
2023-03-16T07:56:31.433Z,4.82
2023-03-16T07:59:02.281Z,11.23
2023-03-16T08:01:31.252Z,6.63
2023-03-16T08:03:58.861Z,9.07
2023-03-16T08:06:26.428Z,6.28
2023-03-16T08:08:54.731Z,9.50
2023-03-16T08:11:29.532Z,6.75
2023-03-16T08:14:00.151Z,6.15
2023-03-16T08:16:42.171Z,5.63
2023-03-16T08:19:11.530Z,6.93
2023-03-16T08:21:58.280Z,4.63
2023-03-16T08:24:31.244Z,6.03
2023-03-16T08:27:01.024Z,5.25
2023-03-16T08:29:30.048Z,6.90
2023-03-16T08:31:57.654Z,4.93
2023-03-16T08:34:33.076Z,7.22
2023-03-16T08:37:01.217Z,7.88
2023-03-16T08:39:29.500Z,7.93
2023-03-16T08:41:57.848Z,6.93
2023-03-16T08:44:33.048Z,4.78
2023-03-16T08:47:01.609Z,2.10
2023-03-16T08:49:29.975Z,2.90
2023-03-16T08:52:05.333Z,4.43
2023-03-16T08:54:37.318Z,9.65
2023-03-16T08:57:04.936Z,3.20
2023-03-16T08:59:32.374Z,3.17
2023-03-16T09:02:00.569Z,2.58
2023-03-16T09:04:28.585Z,4.10
2023-03-16T09:07:07.910Z,1.98
2023-03-16T09:09:36.306Z,3.42
2023-03-16T09:12:04.675Z,2.40
2023-03-16T09:14:32.232Z,5.97
2023-03-16T09:16:59.715Z,3.85
2023-03-16T09:19:29.163Z,4.10
2023-03-16T09:21:58.428Z,5.20
2023-03-16T09:24:26.020Z,2.72
2023-03-16T09:26:53.463Z,7.90
2023-03-16T09:29:21.850Z,4.30
2023-03-16T09:31:49.757Z,5.72
2023-03-16T09:34:17.236Z,3.35
2023-03-16T09:36:44.813Z,4.40
2023-03-16T09:39:13.319Z,5.18
2023-03-16T09:41:54.220Z,5.90
2023-03-16T09:44:29.197Z,2.95
2023-03-16T09:47:01.728Z,8.20
2023-03-16T09:49:37.982Z,3.03
2023-03-16T09:52:49.194Z,8.32
2023-03-16T09:55:33.282Z,2.53
2023-03-16T09:58:02.140Z,6.45
2023-03-16T10:00:41.903Z,7.13
2023-03-16T10:03:36.486Z,8.15
2023-03-16T10:06:09.909Z,4.55
2023-03-16T10:08:51.057Z,4.68
2023-03-16T10:11:33.722Z,3.28
2023-03-16T10:14:18.025Z,4.78
2023-03-16T10:16:56.842Z,4.38
2023-03-16T10:19:37.405Z,3.17
2023-03-16T10:22:20.441Z,3.97
2023-03-16T10:25:02.027Z,8.30
2023-03-16T10:27:38.825Z,3.95
2023-03-16T10:30:18.769Z,2.92
2023-03-16T10:32:47.272Z,4.22
2023-03-16T10:35:31.816Z,4.57
2023-03-16T10:38:00.106Z,3.63
2023-03-16T10:40:32.773Z,2.90
2023-03-16T10:43:11.701Z,3.50
2023-03-16T10:45:39.612Z,3.10
2023-03-16T10:48:34.936Z,4.32
2023-03-16T10:51:10.889Z,6.97
2023-03-16T10:53:43.203Z,5.20
2023-03-16T10:58:42.918Z,6.35
2023-03-16T11:01:13.697Z,5.07
2023-03-16T11:03:41.775Z,4.15
2023-03-16T11:06:30.769Z,3.25
2023-03-16T11:09:14.660Z,4.20
2023-03-16T11:11:49.492Z,9.43
2023-03-16T11:14:21.413Z,3.85
2023-03-16T11:17:04.184Z,4.22
2023-03-16T11:19:35.886Z,6.00
2023-03-16T11:22:15.141Z,5.45
2023-03-16T11:25:15.650Z,3.00
2023-03-16T11:28:12.937Z,3.70
2023-03-16T11:30:59.320Z,3.90
2023-03-16T11:33:27.303Z,4.30
2023-03-16T11:36:21.379Z,2.75
2023-03-16T11:39:09.930Z,3.15
2023-03-16T11:42:04.088Z,2.55
2023-03-16T11:44:43.325Z,6.13
2023-03-16T11:47:16.821Z,11.43
2023-03-16T11:50:02.952Z,10.68
2023-03-16T11:52:50.291Z,2.85
2023-03-16T11:55:29.872Z,2.88
2023-03-16T11:58:28.330Z,2.58
2023-03-16T12:01:08.639Z,4.45
2023-03-16T12:03:58.424Z,5.75
2023-03-16T12:06:47.673Z,3.80
2023-03-16T12:09:50.960Z,6.53
2023-03-16T12:12:37.672Z,5.47
2023-03-16T12:15:32.474Z,4.60
2023-03-16T12:18:12.991Z,2.92
2023-03-16T12:20:47.597Z,2.92
2023-03-16T12:23:27.295Z,4.18
2023-03-16T12:25:59.915Z,2.55
2023-03-16T12:28:30.021Z,5.32
2023-03-16T12:31:15.396Z,1.98
2023-03-16T12:34:08.436Z,8.05
2023-03-16T12:37:01.001Z,2.33
2023-03-16T12:39:47.200Z,5.47
2023-03-16T12:42:33.602Z,6.45
2023-03-16T12:45:08.004Z,3.75
2023-03-16T12:47:57.073Z,2.30
2023-03-16T12:50:25.428Z,3.85
2023-03-16T12:52:53.826Z,3.47
2023-03-16T12:55:28.043Z,4.80
2023-03-16T12:58:02.793Z,2.97
2023-03-16T13:00:38.792Z,4.15
2023-03-16T13:03:15.594Z,4.30
2023-03-16T13:05:50.915Z,3.95
2023-03-16T13:08:21.149Z,3.08
2023-03-16T13:11:10.670Z,5.30
2023-03-16T13:14:02.006Z,4.40
2023-03-16T13:16:33.217Z,2.97
2023-03-16T13:19:00.954Z,2.85
2023-03-16T13:21:41.031Z,5.10
2023-03-16T13:24:18.135Z,2.40
2023-03-16T13:26:52.228Z,2.35
2023-03-16T13:29:27.072Z,3.00
2023-03-16T13:31:58.704Z,3.83
2023-03-16T13:34:38.746Z,4.25
2023-03-16T13:37:15.156Z,2.92
2023-03-16T13:39:51.225Z,2.60
2023-03-16T13:42:20.962Z,3.55
2023-03-16T13:44:48.521Z,6.03
2023-03-16T13:47:19.946Z,5.43
2023-03-16T13:50:00.768Z,7.47
2023-03-16T13:52:34.202Z,2.83
2023-03-16T13:55:07.471Z,5.03
2023-03-16T13:57:40.610Z,3.30
2023-03-16T14:00:20.342Z,3.42
2023-03-16T14:02:53.310Z,8.60
2023-03-16T14:05:27.736Z,3.15
2023-03-16T14:07:56.636Z,4.13
2023-03-16T14:10:29.634Z,5.25
2023-03-16T14:13:06.187Z,2.67
2023-03-16T14:15:34.386Z,5.25
2023-03-16T14:18:22.345Z,8.40
2023-03-16T14:20:54.917Z,3.85
2023-03-16T14:23:33.507Z,3.47
2023-03-16T14:26:03.652Z,5.05
2023-03-16T14:28:32.994Z,3.95
2023-03-16T14:31:13.340Z,4.28
2023-03-16T14:33:46.080Z,5.20
2023-03-16T14:36:17.684Z,5.30
2023-03-16T14:38:48.406Z,7.15
2023-03-16T14:41:27.450Z,3.63
2023-03-16T14:44:00.616Z,10.30
2023-03-16T14:46:33.593Z,5.97
2023-03-16T14:49:10.381Z,6.45
2023-03-16T14:51:39.958Z,3.13
2023-03-16T14:54:18.557Z,5.78
2023-03-16T14:56:51.711Z,3.90
2023-03-16T14:59:20.084Z,3.03
2023-03-16T15:01:50.396Z,4.13
2023-03-16T15:04:46.525Z,3.38
2023-03-16T15:07:40.646Z,4.22
2023-03-16T15:10:22.035Z,4.25
2023-03-16T15:13:04.073Z,5.72
2023-03-16T15:15:32.771Z,3.28
2023-03-16T15:18:00.195Z,3.08
2023-03-16T15:20:35.283Z,3.42
2023-03-16T15:23:04.921Z,3.42
2023-03-16T15:25:38.383Z,4.75
2023-03-16T15:28:20.888Z,9.27
2023-03-16T15:33:18.224Z,3.72
2023-03-16T15:35:47.763Z,11.43
2023-03-16T15:38:24.708Z,4.55
2023-03-16T15:40:53.285Z,4.68
2023-03-16T15:43:23.095Z,3.88
2023-03-16T15:45:52.487Z,3.58
2023-03-16T15:48:24.713Z,3.15
2023-03-16T15:53:46.051Z,4.57
2023-03-16T15:58:45.768Z,3.67
2023-03-16T16:01:21.503Z,3.63
2023-03-16T16:03:53.396Z,4.30
2023-03-16T16:06:20.949Z,7.47
2023-03-16T16:08:48.375Z,8.05
2023-03-16T16:11:16.845Z,7.40
2023-03-16T16:13:45.326Z,4.72
2023-03-16T16:16:15.162Z,5.88
2023-03-16T16:18:42.869Z,7.47
2023-03-16T16:21:15.526Z,4.97
2023-03-16T16:23:43.106Z,5.72
2023-03-16T16:26:49.094Z,5.70
2023-03-16T16:29:24.495Z,4.47
2023-03-16T16:31:53.587Z,8.52
2023-03-16T16:34:24.673Z,6.70
2023-03-16T16:36:56.718Z,5.40
2023-03-16T16:39:24.760Z,4.53
2023-03-16T16:41:54.946Z,5.68
2023-03-16T16:44:34.473Z,5.63
2023-03-16T16:47:03.672Z,4.25
2023-03-16T16:49:35.061Z,4.93
2023-03-16T16:52:03.722Z,5.20
2023-03-16T16:54:32.107Z,4.15
2023-03-16T16:57:01.612Z,4.80
2023-03-16T16:59:32.428Z,3.97
2023-03-16T17:02:01.811Z,4.97
2023-03-16T17:04:29.883Z,7.60
2023-03-16T17:07:00.853Z,6.55
2023-03-16T17:09:29.237Z,4.90
2023-03-16T17:12:00.149Z,6.70
2023-03-16T17:14:28.394Z,6.72
2023-03-16T17:16:57.008Z,5.80
2023-03-16T17:19:28.604Z,6.10
2023-03-16T17:21:58.401Z,5.10
2023-03-16T17:24:26.111Z,5.78
2023-03-16T17:26:57.075Z,10.40
2023-03-16T17:29:34.278Z,9.38
2023-03-16T17:32:05.110Z,9.55
2023-03-16T17:34:34.340Z,5.68
2023-03-16T17:37:02.286Z,6.22
2023-03-16T17:39:32.430Z,12.25
2023-03-16T17:42:07.051Z,9.93
2023-03-16T17:44:39.845Z,10.23
2023-03-16T17:47:31.248Z,7.65
2023-03-16T17:49:58.745Z,9.55
2023-03-16T17:52:29.222Z,12.48
2023-03-16T17:54:57.321Z,12.48
2023-03-16T17:57:33.544Z,24.23
2023-03-16T18:00:03.268Z,11.50
2023-03-16T18:02:49.813Z,6.32
2023-03-16T18:05:20.065Z,12.07
2023-03-16T18:07:48.266Z,10.80
2023-03-16T18:10:18.837Z,9.48
2023-03-16T18:12:49.925Z,12.05
2023-03-16T18:15:18.860Z,10.52
2023-03-16T18:17:46.471Z,7.30
2023-03-16T18:20:22.844Z,11.88
2023-03-16T18:22:50.488Z,10.85
2023-03-16T18:25:34.324Z,28.65
2023-03-16T18:28:02.703Z,26.85
2023-03-16T18:30:31.770Z,20.15
2023-03-16T18:33:00.475Z,16.05
2023-03-16T18:35:28.146Z,14.35
2023-03-16T18:37:56.266Z,24.40
2023-03-16T18:40:25.780Z,17.55
2023-03-16T18:42:55.070Z,12.48
2023-03-16T18:45:26.694Z,8.85
2023-03-16T18:47:56.214Z,11.52
2023-03-16T18:50:28.753Z,9.30
2023-03-16T18:52:57.392Z,5.40
2023-03-16T18:55:25.765Z,7.15
2023-03-16T18:57:56.411Z,7.20
2023-03-16T19:00:29.854Z,11.27
2023-03-16T19:03:01.362Z,6.85
2023-03-16T19:08:05.041Z,9.52
2023-03-16T19:10:36.548Z,11.85
2023-03-16T19:13:10.082Z,7.53
2023-03-16T19:15:39.300Z,7.03
2023-03-16T19:18:06.698Z,7.70
2023-03-16T19:20:35.524Z,11.15
2023-03-16T19:23:24.445Z,9.73
2023-03-16T19:25:53.260Z,16.83
2023-03-16T19:28:34.898Z,10.50
2023-03-16T19:31:18.398Z,13.73
2023-03-16T19:33:46.288Z,15.52
2023-03-16T19:36:32.047Z,15.35
2023-03-16T19:38:59.906Z,8.35
2023-03-16T19:41:34.073Z,8.82
2023-03-16T19:44:18.967Z,9.15
2023-03-16T19:46:47.241Z,10.80
2023-03-16T19:49:22.843Z,23.13
2023-03-16T19:51:52.255Z,24.92
2023-03-16T19:54:33.374Z,9.23
2023-03-16T19:57:07.354Z,10.05
2023-03-16T19:59:35.516Z,10.27
2023-03-16T20:02:03.081Z,10.55
2023-03-16T20:04:31.391Z,14.38
2023-03-16T20:06:58.895Z,16.27
2023-03-16T20:09:26.311Z,11.23
2023-03-16T20:11:53.705Z,16.73
2023-03-16T20:14:29.102Z,10.40
2023-03-16T20:16:56.834Z,9.27
2023-03-16T20:19:24.633Z,10.65
2023-03-16T20:21:52.028Z,10.10
2023-03-16T20:24:24.476Z,8.95
2023-03-16T20:26:54.153Z,11.18
2023-03-16T20:29:33.217Z,10.10
2023-03-16T20:32:01.306Z,6.30
2023-03-16T20:34:31.265Z,6.95
2023-03-16T20:36:59.226Z,6.88
2023-03-16T20:39:27.888Z,10.55
2023-03-16T20:41:55.595Z,13.10
2023-03-16T20:44:26.749Z,8.63
2023-03-16T20:46:54.153Z,9.70
2023-03-16T20:49:30.733Z,7.07
2023-03-16T20:51:58.403Z,10.23
2023-03-16T20:54:25.798Z,10.10
2023-03-16T20:56:53.660Z,9.63
2023-03-16T20:59:24.894Z,9.45
2023-03-16T21:01:55.474Z,9.40
2023-03-16T21:04:27.270Z,10.75
2023-03-16T21:06:56.863Z,10.27
2023-03-16T21:09:27.778Z,7.47
2023-03-16T21:11:55.263Z,9.32
2023-03-16T21:14:24.565Z,11.45
2023-03-16T21:16:54.002Z,7.63
2023-03-16T21:19:23.787Z,11.07
2023-03-16T21:21:51.534Z,13.07
2023-03-16T21:24:19.180Z,9.20
2023-03-16T21:26:47.536Z,10.60
2023-03-16T21:29:18.450Z,12.25
2023-03-16T21:31:46.036Z,14.35
2023-03-16T21:34:26.311Z,14.32
2023-03-16T21:36:53.956Z,11.60
2023-03-16T21:39:24.845Z,17.20
2023-03-16T21:41:52.643Z,13.20
2023-03-16T21:44:20.732Z,14.00
2023-03-16T21:46:48.356Z,15.32
2023-03-16T21:49:16.009Z,12.02
2023-03-16T21:51:43.713Z,11.32
2023-03-16T21:54:15.247Z,15.57
2023-03-16T21:56:44.095Z,9.93
2023-03-16T21:59:12.388Z,13.38
2023-03-16T22:01:58.275Z,10.75
2023-03-16T22:04:28.400Z,16.75
2023-03-16T22:06:55.947Z,11.65
2023-03-16T22:09:24.957Z,10.75
2023-03-16T22:11:53.221Z,16.60
2023-03-16T22:14:21.031Z,13.27
2023-03-16T22:16:49.473Z,12.10
2023-03-16T22:19:18.141Z,18.70
2023-03-16T22:21:47.166Z,17.98
2023-03-16T22:24:22.141Z,13.00
2023-03-16T22:26:50.888Z,12.35
2023-03-16T22:29:21.202Z,16.83
2023-03-16T22:31:49.421Z,12.60
2023-03-16T22:34:53.484Z,24.17
2023-03-16T22:37:26.734Z,12.18
2023-03-16T22:39:56.602Z,11.30
2023-03-16T22:42:32.999Z,13.65
2023-03-16T22:45:01.090Z,13.90
2023-03-16T22:47:32.576Z,13.55
2023-03-16T22:50:00.228Z,10.02
2023-03-16T22:52:34.577Z,16.73
2023-03-16T22:55:04.861Z,10.48
2023-03-16T22:57:34.823Z,13.65
2023-03-16T23:00:03.518Z,11.68
2023-03-16T23:02:31.754Z,15.73
2023-03-16T23:04:59.309Z,13.07
2023-03-16T23:07:27.160Z,9.50
2023-03-16T23:09:54.587Z,12.73
2023-03-16T23:12:22.229Z,10.65
2023-03-16T23:14:52.703Z,13.68
2023-03-16T23:17:24.872Z,11.32
2023-03-16T23:22:19.499Z,10.57
2023-03-16T23:24:47.486Z,13.35
2023-03-16T23:27:18.223Z,9.50
2023-03-16T23:29:46.667Z,11.52
2023-03-16T23:32:15.781Z,14.57
2023-03-16T23:34:43.176Z,13.70
2023-03-16T23:37:10.737Z,12.98
2023-03-16T23:39:38.313Z,14.52
2023-03-16T23:42:06.049Z,14.15
2023-03-16T23:44:33.533Z,16.23
2023-03-16T23:47:01.391Z,11.25
2023-03-16T23:49:32.652Z,22.02
2023-03-16T23:52:01.779Z,10.70
2023-03-16T23:54:32.583Z,14.90
2023-03-16T23:56:59.989Z,15.10
2023-03-16T23:59:27.810Z,17.35
